createdAt,value
2023-05-16T00:02:10.820Z,17.42
2023-05-16T00:07:13.468Z,14.10
2023-05-16T00:12:17.945Z,15.25
2023-05-16T00:17:21.163Z,10.77
2023-05-16T00:22:24.807Z,14.32
2023-05-16T00:27:27.592Z,12.07
2023-05-16T00:32:30.423Z,12.02
2023-05-16T00:37:33.199Z,13.48
2023-05-16T00:42:36.136Z,11.88
2023-05-16T00:47:40.556Z,12.27
2023-05-16T00:52:43.383Z,11.93
2023-05-16T00:57:46.290Z,12.27
2023-05-16T01:02:52.081Z,11.60
2023-05-16T01:07:55.542Z,8.98
2023-05-16T01:13:12.880Z,11.98
2023-05-16T01:18:31.003Z,15.00
2023-05-16T01:23:51.953Z,12.20
2023-05-16T01:28:55.548Z,11.40
2023-05-16T01:33:58.234Z,11.75
2023-05-16T01:39:27.919Z,11.27
2023-05-16T01:45:07.746Z,12.27
2023-05-16T01:50:20.709Z,12.88
2023-05-16T01:55:56.260Z,8.27
2023-05-16T02:01:08.353Z,9.65
2023-05-16T02:06:13.001Z,9.80
2023-05-16T02:11:15.880Z,10.35
2023-05-16T02:16:19.723Z,16.88
2023-05-16T02:21:22.508Z,13.40
2023-05-16T02:26:25.262Z,15.32
2023-05-16T02:31:33.532Z,18.73
2023-05-16T02:36:37.154Z,24.05
2023-05-16T02:41:40.009Z,22.10
2023-05-16T02:46:44.659Z,22.75
2023-05-16T02:51:48.164Z,21.75
2023-05-16T02:56:51.036Z,17.88
2023-05-16T03:01:55.504Z,14.68
2023-05-16T03:06:58.386Z,16.02
2023-05-16T03:12:03.818Z,18.17
2023-05-16T03:17:06.649Z,17.08
2023-05-16T03:22:09.304Z,20.55
2023-05-16T03:27:15.008Z,18.23
2023-05-16T03:32:19.857Z,22.85
2023-05-16T03:37:22.649Z,18.48
2023-05-16T03:42:25.330Z,20.00
2023-05-16T03:47:31.398Z,25.70
2023-05-16T03:52:34.799Z,21.75
2023-05-16T03:57:41.414Z,26.27
2023-05-16T04:02:44.344Z,24.15
2023-05-16T04:07:47.172Z,21.08
2023-05-16T04:12:49.912Z,14.13
2023-05-16T04:17:52.718Z,19.17
2023-05-16T04:22:55.730Z,17.35
2023-05-16T04:27:58.486Z,14.65
2023-05-16T04:33:01.564Z,12.75
2023-05-16T04:38:04.869Z,8.65
2023-05-16T04:43:08.365Z,13.45
2023-05-16T04:48:12.257Z,9.93
2023-05-16T04:53:15.254Z,13.20
2023-05-16T04:58:18.075Z,12.07
2023-05-16T05:03:21.251Z,7.30
2023-05-16T05:08:24.050Z,7.88
2023-05-16T05:13:26.705Z,7.85
2023-05-16T05:18:29.736Z,5.45
2023-05-16T05:23:33.088Z,8.57
2023-05-16T05:28:36.902Z,7.57
2023-05-16T05:33:39.669Z,8.32
2023-05-16T05:38:42.377Z,9.40
2023-05-16T05:43:45.084Z,4.30
2023-05-16T05:48:47.738Z,7.63
2023-05-16T05:53:50.651Z,4.60
2023-05-16T05:58:53.325Z,4.93
2023-05-16T06:03:59.276Z,4.72
2023-05-16T06:09:03.806Z,9.13
2023-05-16T06:14:06.500Z,6.35
2023-05-16T06:19:10.304Z,4.15
2023-05-16T06:24:13.145Z,6.88
2023-05-16T06:29:16.684Z,7.32
2023-05-16T06:34:19.428Z,4.95
2023-05-16T06:39:22.205Z,5.38
2023-05-16T06:44:24.936Z,3.17
2023-05-16T06:49:27.659Z,8.57
2023-05-16T06:54:30.314Z,4.70
2023-05-16T06:59:33.046Z,8.48
2023-05-16T07:04:38.430Z,4.82
2023-05-16T07:09:41.277Z,4.53
2023-05-16T07:14:44.072Z,3.58
2023-05-16T07:19:47.314Z,4.68
2023-05-16T07:24:50.128Z,8.18
2023-05-16T07:29:52.851Z,3.78
2023-05-16T07:34:55.670Z,1.98
2023-05-16T07:39:58.397Z,3.60
2023-05-16T07:45:02.281Z,5.82
2023-05-16T07:50:08.109Z,5.60
2023-05-16T07:55:11.115Z,5.95
2023-05-16T08:00:14.848Z,16.48
2023-05-16T08:05:17.956Z,3.20
2023-05-16T08:10:20.641Z,4.10
2023-05-16T08:15:23.448Z,7.30
2023-05-16T08:20:26.610Z,3.10
2023-05-16T08:25:29.954Z,3.13
2023-05-16T08:30:32.859Z,5.78
2023-05-16T08:35:35.770Z,6.72
2023-05-16T08:40:39.989Z,4.55
2023-05-16T08:45:42.888Z,9.27
2023-05-16T08:50:45.805Z,4.38
2023-05-16T08:55:50.284Z,4.88
2023-05-16T09:00:53.104Z,2.08
2023-05-16T09:05:56.655Z,2.67
2023-05-16T09:10:59.730Z,5.72
2023-05-16T09:16:13.734Z,5.32
2023-05-16T09:21:17.105Z,7.82
2023-05-16T09:26:19.974Z,9.65
2023-05-16T09:31:27.787Z,1.88
2023-05-16T09:36:35.638Z,6.25
2023-05-16T09:41:38.694Z,4.65
2023-05-16T09:46:41.759Z,2.25
2023-05-16T09:51:44.607Z,2.40
2023-05-16T09:56:51.681Z,23.45
2023-05-16T10:01:55.175Z,4.13
2023-05-16T10:07:02.137Z,6.00
2023-05-16T10:12:09.200Z,3.78
2023-05-16T10:17:14.509Z,2.05
2023-05-16T10:22:18.101Z,5.97
2023-05-16T10:27:21.323Z,2.25
2023-05-16T10:32:25.569Z,4.05
2023-05-16T10:37:29.962Z,6.65
2023-05-16T10:42:33.855Z,7.30
2023-05-16T10:47:36.805Z,3.28
2023-05-16T10:52:39.439Z,2.95
2023-05-16T10:57:45.120Z,2.83
2023-05-16T11:02:48.180Z,4.90
2023-05-16T11:08:09.234Z,6.13
2023-05-16T11:13:12.159Z,11.25
2023-05-16T11:18:16.481Z,2.50
2023-05-16T11:23:24.141Z,2.55
2023-05-16T11:28:28.280Z,2.85
2023-05-16T11:33:35.741Z,7.90
2023-05-16T11:38:43.483Z,7.00
2023-05-16T11:43:46.509Z,2.10
2023-05-16T11:48:49.267Z,3.88
2023-05-16T11:53:52.303Z,6.82
2023-05-16T11:58:55.268Z,3.95
2023-05-16T12:03:58.434Z,5.93
2023-05-16T12:09:04.300Z,3.72
2023-05-16T12:14:09.768Z,2.75
2023-05-16T12:19:13.027Z,7.20
2023-05-16T12:24:16.933Z,3.65
2023-05-16T12:29:21.976Z,5.53
2023-05-16T12:34:28.720Z,3.45
2023-05-16T12:39:38.273Z,3.03
2023-05-16T12:44:45.765Z,2.45
2023-05-16T12:49:51.413Z,4.15
2023-05-16T12:54:54.234Z,3.00
2023-05-16T12:59:57.272Z,4.35
2023-05-16T13:04:59.898Z,4.55
2023-05-16T13:10:03.133Z,9.15
2023-05-16T13:15:11.949Z,7.28
2023-05-16T13:20:15.374Z,8.45
2023-05-16T13:25:18.374Z,4.53
2023-05-16T13:30:22.960Z,4.57
2023-05-16T13:35:26.768Z,1.92
2023-05-16T13:40:29.912Z,3.63
2023-05-16T13:45:32.618Z,2.03
2023-05-16T13:50:35.785Z,6.15
2023-05-16T13:55:38.798Z,3.88
2023-05-16T14:00:45.703Z,4.72
2023-05-16T14:05:49.807Z,5.70
2023-05-16T14:10:52.646Z,4.18
2023-05-16T14:15:55.676Z,5.85
2023-05-16T14:20:58.505Z,3.65
2023-05-16T14:26:01.261Z,8.73
2023-05-16T14:31:04.366Z,4.00
2023-05-16T14:36:08.887Z,3.13
2023-05-16T14:41:14.858Z,3.83
2023-05-16T14:46:17.702Z,6.18
2023-05-16T14:51:20.848Z,3.45
2023-05-16T14:56:23.726Z,4.95
2023-05-16T15:01:26.826Z,5.28
2023-05-16T15:06:30.288Z,3.72
2023-05-16T15:11:33.138Z,4.75
2023-05-16T15:16:36.024Z,3.20
2023-05-16T15:21:39.005Z,5.22
2023-05-16T15:26:41.982Z,9.13
2023-05-16T15:31:44.798Z,6.97
2023-05-16T15:36:47.578Z,6.10
2023-05-16T15:42:09.297Z,3.53
2023-05-16T15:47:12.935Z,6.35
2023-05-16T15:52:15.711Z,5.22
2023-05-16T15:57:19.288Z,3.03
2023-05-16T16:02:22.001Z,3.50
2023-05-16T16:07:24.935Z,5.30
2023-05-16T16:12:29.998Z,7.15
2023-05-16T16:17:34.067Z,6.10
2023-05-16T16:22:36.868Z,7.10
2023-05-16T16:27:39.639Z,2.90
2023-05-16T16:32:42.452Z,4.25
2023-05-16T16:37:58.253Z,5.70
2023-05-16T16:43:08.763Z,5.57
2023-05-16T16:48:11.932Z,8.80
2023-05-16T16:53:14.837Z,9.00
2023-05-16T16:58:17.523Z,8.98
2023-05-16T17:03:21.463Z,6.45
2023-05-16T17:08:25.082Z,10.98
2023-05-16T17:13:33.768Z,6.53
2023-05-16T17:18:37.049Z,12.65
2023-05-16T17:23:41.708Z,15.52
2023-05-16T17:28:49.737Z,5.78
2023-05-16T17:33:53.503Z,6.60
2023-05-16T17:38:57.391Z,14.48
2023-05-16T17:44:00.172Z,10.00
2023-05-16T17:49:02.960Z,5.07
2023-05-16T17:54:06.573Z,8.63
2023-05-16T17:59:10.281Z,7.15
2023-05-16T18:04:13.439Z,13.00
2023-05-16T18:09:16.215Z,11.25
2023-05-16T18:14:19.293Z,12.85
2023-05-16T18:19:22.206Z,10.55
2023-05-16T18:24:25.409Z,11.35
2023-05-16T18:29:28.138Z,8.13
2023-05-16T18:34:31.675Z,6.78
2023-05-16T18:39:34.402Z,7.30
2023-05-16T18:44:37.565Z,8.65
2023-05-16T18:49:40.245Z,12.50
2023-05-16T18:54:42.939Z,9.48
2023-05-16T19:00:06.431Z,51.45
2023-05-16T19:05:21.734Z,19.50
2023-05-16T19:10:27.031Z,16.27
2023-05-16T19:15:30.102Z,10.45
2023-05-16T19:20:34.886Z,20.10
2023-05-16T19:25:37.747Z,9.27
2023-05-16T19:30:40.816Z,9.95
2023-05-16T19:35:43.508Z,10.23
2023-05-16T19:40:46.980Z,6.05
2023-05-16T19:45:50.019Z,9.10
2023-05-16T19:50:53.536Z,7.55
2023-05-16T19:55:56.537Z,9.70
2023-05-16T20:00:59.346Z,11.45
2023-05-16T20:06:26.989Z,8.43
2023-05-16T20:11:30.365Z,8.93
2023-05-16T20:16:33.159Z,8.20
2023-05-16T20:21:35.942Z,9.80
2023-05-16T20:26:38.755Z,13.88
2023-05-16T20:31:43.874Z,7.53
2023-05-16T20:36:46.647Z,9.73
2023-05-16T20:41:49.490Z,9.52
2023-05-16T20:46:52.439Z,10.52
2023-05-16T20:51:55.798Z,12.00
2023-05-16T20:56:58.671Z,13.00
2023-05-16T21:02:01.603Z,12.25
2023-05-16T21:07:06.842Z,8.57
2023-05-16T21:12:11.479Z,10.38
2023-05-16T21:17:14.773Z,11.18
2023-05-16T21:22:17.575Z,15.00
2023-05-16T21:27:20.377Z,12.75
2023-05-16T21:32:23.323Z,11.30
2023-05-16T21:37:26.120Z,7.78
2023-05-16T21:42:28.816Z,8.68
2023-05-16T21:47:31.610Z,13.70
2023-05-16T21:52:34.491Z,9.60
2023-05-16T21:57:37.317Z,12.10
2023-05-16T22:02:40.068Z,11.95
2023-05-16T22:07:43.038Z,25.60
2023-05-16T22:12:45.725Z,11.07
2023-05-16T22:17:48.629Z,10.20
2023-05-16T22:22:52.330Z,12.80
2023-05-16T22:27:55.017Z,10.35
2023-05-16T22:32:57.793Z,8.88
2023-05-16T22:38:00.836Z,12.40
2023-05-16T22:43:03.668Z,9.50
2023-05-16T22:48:06.642Z,10.88
2023-05-16T22:53:09.398Z,10.98
2023-05-16T22:58:12.102Z,7.28
2023-05-16T23:03:14.850Z,12.75
2023-05-16T23:08:17.554Z,11.32
2023-05-16T23:13:20.270Z,7.05
2023-05-16T23:18:23.178Z,8.93
2023-05-16T23:23:26.102Z,6.93
2023-05-16T23:28:28.823Z,9.73
2023-05-16T23:33:31.602Z,7.82
2023-05-16T23:38:34.297Z,13.15
2023-05-16T23:43:37.214Z,12.18
2023-05-16T23:48:40.169Z,9.57
2023-05-16T23:53:43.031Z,6.78
2023-05-16T23:58:45.790Z,9.93
